Time;durP1;ratioP1;P1;durP2;ratioP2;P2;SDS_P1;SDS_P2;PMS_P1;PMS_P2;Temp;Humidity;BMP_temperature;BMP_pressure;BME280_temperature;BME280_humidity;BME280_pressure;Samples;Min_cycle;Max_cycle;Signal;HPM_P1;HPM_P2
2021/10/14 00:01:41;;;;;;;5.97;4.97;;;5.80;99.90;;;;;;5055301;28;20208;-80
2021/10/14 00:04:08;;;;;;;7.05;5.43;;;5.80;99.90;;;;;;5054914;28;20737;-80
2021/10/14 00:06:36;;;;;;;5.43;4.57;;;5.80;99.90;;;;;;5060961;28;20666;-80
2021/10/14 00:09:03;;;;;;;7.05;5.50;;;5.70;99.90;;;;;;5065683;28;20201;-80
2021/10/14 00:11:30;;;;;;;5.55;5.05;;;5.70;99.90;;;;;;5074662;28;20216;-80
2021/10/14 00:13:57;;;;;;;6.15;5.50;;;5.70;99.90;;;;;;5055280;28;20327;-80
2021/10/14 00:16:23;;;;;;;8.40;6.03;;;5.70;99.90;;;;;;5062345;28;20705;-79
2021/10/14 00:18:50;;;;;;;5.38;4.88;;;5.70;99.90;;;;;;5071916;28;20193;-80
2021/10/14 00:21:17;;;;;;;5.97;5.43;;;5.70;99.90;;;;;;5054846;28;20209;-80
2021/10/14 00:23:45;;;;;;;5.03;4.63;;;5.60;99.90;;;;;;5056328;28;20218;-80
2021/10/14 00:26:12;;;;;;;5.88;5.38;;;5.60;99.90;;;;;;5059262;28;20559;-80
2021/10/14 00:28:39;;;;;;;7.57;5.57;;;5.60;99.90;;;;;;5074417;28;20197;-80
2021/10/14 00:31:06;;;;;;;6.85;6.30;;;5.70;99.90;;;;;;5071620;28;20205;-80
2021/10/14 00:33:32;;;;;;;6.05;5.47;;;5.60;99.90;;;;;;5054578;28;20230;-79
2021/10/14 00:35:59;;;;;;;5.78;5.28;;;5.60;99.90;;;;;;5058563;28;20198;-80
2021/10/14 00:38:26;;;;;;;5.35;4.85;;;5.60;99.90;;;;;;5055053;28;20225;-80
2021/10/14 00:40:54;;;;;;;5.90;5.32;;;5.60;99.90;;;;;;5068169;28;20201;-80
2021/10/14 00:43:21;;;;;;;6.68;6.05;;;5.60;99.90;;;;;;5075123;28;20315;-80
2021/10/14 00:45:48;;;;;;;4.47;4.10;;;5.60;99.90;;;;;;5069549;28;20208;-81
2021/10/14 00:48:14;;;;;;;7.07;5.47;;;5.60;99.90;;;;;;5074820;28;20201;-80
2021/10/14 00:50:41;;;;;;;5.53;5.10;;;5.60;99.90;;;;;;5056200;28;20202;-80
2021/10/14 00:53:09;;;;;;;5.40;4.90;;;5.50;99.90;;;;;;5062624;28;20235;-80
2021/10/14 00:55:36;;;;;;;4.35;3.80;;;5.50;99.90;;;;;;5067922;28;20212;-80
2021/10/14 00:58:04;;;;;;;6.30;5.78;;;5.50;99.90;;;;;;5057012;28;20225;-81
2021/10/14 01:00:31;;;;;;;7.28;6.55;;;5.50;99.90;;;;;;5075694;28;20213;-80
2021/10/14 01:02:58;;;;;;;4.13;3.72;;;5.40;99.90;;;;;;5060984;28;20221;-81
2021/10/14 01:05:25;;;;;;;5.80;5.28;;;5.40;99.90;;;;;;5075534;28;20211;-80
2021/10/14 01:07:52;;;;;;;5.20;4.53;;;5.40;99.90;;;;;;5063458;28;20209;-80
2021/10/14 01:10:18;;;;;;;5.60;5.10;;;5.40;99.90;;;;;;5062398;28;20196;-80
2021/10/14 01:12:46;;;;;;;5.45;4.95;;;5.30;99.90;;;;;;5078611;28;20228;-80
2021/10/14 01:15:20;;;;;;;6.40;5.03;;;5.40;99.90;;;;;;5065758;28;20200;-80
2021/10/14 01:17:47;;;;;;;7.28;5.85;;;5.30;99.90;;;;;;5070931;28;20221;-80
2021/10/14 01:20:15;;;;;;;5.40;4.82;;;5.30;99.90;;;;;;5058765;28;20217;-80
2021/10/14 01:22:42;;;;;;;8.77;8.05;;;5.30;99.90;;;;;;5059136;28;20228;-79
2021/10/14 01:25:09;;;;;;;5.38;4.88;;;5.30;99.90;;;;;;5058781;28;20213;-80
2021/10/14 01:27:37;;;;;;;8.65;5.45;;;5.30;99.90;;;;;;5058699;28;20197;-79
2021/10/14 01:30:04;;;;;;;6.60;5.32;;;5.30;99.90;;;;;;5057817;28;20209;-80
2021/10/14 01:32:31;;;;;;;5.20;4.65;;;5.30;99.90;;;;;;5057233;28;20228;-79
2021/10/14 01:34:58;;;;;;;5.75;5.07;;;5.30;99.90;;;;;;5057544;28;20206;-80
2021/10/14 01:37:26;;;;;;;6.70;6.20;;;5.30;99.90;;;;;;5057557;28;20229;-80
2021/10/14 01:39:53;;;;;;;6.25;5.75;;;5.30;99.90;;;;;;5057033;28;20198;-79
2021/10/14 01:42:19;;;;;;;5.85;5.25;;;5.20;99.90;;;;;;5057006;28;20600;-80
2021/10/14 01:44:46;;;;;;;6.35;5.75;;;5.20;99.90;;;;;;5057219;28;20212;-79
2021/10/14 01:47:13;;;;;;;6.05;4.93;;;5.30;99.90;;;;;;5057009;28;20201;-80
2021/10/14 01:49:39;;;;;;;5.68;5.15;;;5.20;99.90;;;;;;5056560;28;20225;-80
2021/10/14 01:52:06;;;;;;;8.15;7.50;;;5.30;99.90;;;;;;5056480;28;20198;-80
2021/10/14 01:54:34;;;;;;;6.28;5.30;;;5.30;99.90;;;;;;5056701;28;20224;-80
2021/10/14 01:57:01;;;;;;;6.88;5.28;;;5.30;99.90;;;;;;5056107;28;20702;-79
2021/10/14 01:59:28;;;;;;;6.50;5.43;;;5.30;99.90;;;;;;5056835;28;20219;-81
2021/10/14 02:01:54;;;;;;;5.85;5.35;;;5.30;99.90;;;;;;5056919;28;20694;-79
2021/10/14 02:04:21;;;;;;;6.43;4.97;;;5.30;99.90;;;;;;5057164;28;20213;-79
2021/10/14 02:06:48;;;;;;;6.10;5.50;;;5.30;99.90;;;;;;5055998;28;20229;-80
2021/10/14 02:09:15;;;;;;;8.95;6.50;;;5.30;99.90;;;;;;5057129;28;20216;-80
2021/10/14 02:11:43;;;;;;;8.60;5.20;;;5.30;99.90;;;;;;5056834;28;20205;-80
2021/10/14 02:14:09;;;;;;;5.20;4.70;;;5.20;99.90;;;;;;5056656;28;20754;-80
2021/10/14 02:16:36;;;;;;;7.53;5.70;;;5.20;99.90;;;;;;5066363;28;20209;-80
2021/10/14 02:19:03;;;;;;;6.93;5.03;;;5.20;99.90;;;;;;5056705;28;20225;-80
2021/10/14 02:21:30;;;;;;;5.88;5.38;;;5.20;99.90;;;;;;5062373;28;20208;-79
2021/10/14 02:23:56;;;;;;;7.47;5.57;;;5.20;99.90;;;;;;5065800;28;20229;-80
2021/10/14 02:26:23;;;;;;;6.72;6.07;;;5.10;99.90;;;;;;5076531;28;20213;-80
2021/10/14 02:28:51;;;;;;;7.15;6.50;;;5.10;99.90;;;;;;5071177;28;20194;-80
2021/10/14 02:31:18;;;;;;;8.25;7.55;;;5.10;99.90;;;;;;5056812;28;20239;-81
2021/10/14 02:33:45;;;;;;;9.60;7.65;;;5.10;99.90;;;;;;5058902;28;20221;-80
2021/10/14 02:36:11;;;;;;;7.57;6.60;;;5.10;99.90;;;;;;5076294;28;20291;-81
2021/10/14 02:38:38;;;;;;;7.85;6.25;;;5.10;99.90;;;;;;5077257;28;20235;-80
2021/10/14 02:41:05;;;;;;;6.03;5.53;;;5.10;99.90;;;;;;5068602;28;20225;-79
2021/10/14 02:43:32;;;;;;;6.75;6.15;;;5.10;99.90;;;;;;5061532;28;20225;-79
2021/10/14 02:46:00;;;;;;;7.50;6.35;;;5.10;99.90;;;;;;5078018;28;20205;-79
2021/10/14 02:48:26;;;;;;;9.40;7.85;;;5.10;99.90;;;;;;5076914;28;20208;-80
2021/10/14 02:50:53;;;;;;;7.15;6.55;;;5.10;99.90;;;;;;5065836;28;20205;-80
2021/10/14 02:53:20;;;;;;;8.70;7.80;;;5.00;99.90;;;;;;5061755;28;20228;-81
2021/10/14 02:55:47;;;;;;;9.63;7.57;;;5.00;99.90;;;;;;5062717;28;20617;-80
2021/10/14 02:58:13;;;;;;;8.57;7.70;;;5.00;99.90;;;;;;5061097;28;20217;-81
2021/10/14 03:00:40;;;;;;;8.40;7.45;;;5.00;99.90;;;;;;5075155;28;20200;-81
2021/10/14 03:03:08;;;;;;;8.90;7.47;;;5.00;99.90;;;;;;5073519;28;20214;-80
2021/10/14 03:05:35;;;;;;;9.35;7.93;;;4.90;99.90;;;;;;5056932;28;20558;-81
2021/10/14 03:08:02;;;;;;;8.23;7.53;;;4.90;99.90;;;;;;5076510;28;20205;-80
2021/10/14 03:10:28;;;;;;;9.13;8.32;;;4.90;99.90;;;;;;5069668;28;20213;-81
2021/10/14 03:12:55;;;;;;;8.90;8.00;;;4.90;99.90;;;;;;5057251;28;20248;-80
2021/10/14 03:15:22;;;;;;;7.93;7.32;;;4.90;99.90;;;;;;5061332;28;20607;-80
2021/10/14 03:17:48;;;;;;;8.02;6.82;;;4.90;99.90;;;;;;5076624;28;20229;-79
2021/10/14 03:20:17;;;;;;;7.05;6.20;;;4.90;99.90;;;;;;5057959;28;20207;-81
2021/10/14 03:22:43;;;;;;;6.93;6.13;;;4.90;99.90;;;;;;5057352;28;20224;-80
2021/10/14 03:25:10;;;;;;;6.85;6.25;;;4.80;99.90;;;;;;5056242;28;20210;-80
2021/10/14 03:27:37;;;;;;;6.57;5.95;;;4.90;99.90;;;;;;5057935;28;20205;-80
2021/10/14 03:30:05;;;;;;;6.05;5.45;;;5.00;99.90;;;;;;5059843;28;20200;-80
2021/10/14 03:32:31;;;;;;;7.47;6.78;;;4.90;99.90;;;;;;5076293;28;20224;-81
2021/10/14 03:34:58;;;;;;;7.57;6.88;;;5.00;99.90;;;;;;5073997;28;20212;-80
2021/10/14 03:37:26;;;;;;;6.97;6.38;;;5.00;99.90;;;;;;5056239;28;20202;-81
2021/10/14 03:39:53;;;;;;;8.45;7.63;;;5.00;99.90;;;;;;5057046;28;20205;-80
2021/10/14 03:42:21;;;;;;;9.32;7.03;;;5.00;99.90;;;;;;5061816;28;20236;-80
2021/10/14 03:44:48;;;;;;;10.55;6.70;;;5.00;99.90;;;;;;5069496;28;20573;-80
2021/10/14 03:47:14;;;;;;;6.90;6.32;;;5.00;99.90;;;;;;5075644;28;20208;-80
2021/10/14 03:49:41;;;;;;;6.30;5.80;;;5.00;99.90;;;;;;5064745;28;20205;-81
2021/10/14 03:52:08;;;;;;;6.93;6.35;;;5.00;99.90;;;;;;5056535;28;20233;-80
2021/10/14 03:54:36;;;;;;;7.13;6.15;;;5.00;99.90;;;;;;5074034;28;20617;-80
2021/10/14 03:57:03;;;;;;;6.65;5.38;;;5.00;99.90;;;;;;5059825;28;20207;-80
2021/10/14 03:59:30;;;;;;;6.13;5.63;;;5.00;99.90;;;;;;5064050;28;20218;-80
2021/10/14 04:01:56;;;;;;;5.63;4.93;;;5.00;99.90;;;;;;5057727;28;20203;-80
2021/10/14 04:04:23;;;;;;;9.43;5.38;;;5.00;99.90;;;;;;5070935;28;20215;-80
2021/10/14 04:06:51;;;;;;;7.15;5.55;;;4.90;99.90;;;;;;5065374;28;20202;-80
2021/10/14 04:09:17;;;;;;;7.57;6.28;;;4.80;99.90;;;;;;5058336;28;20197;-80
2021/10/14 04:11:46;;;;;;;6.43;5.82;;;4.70;99.90;;;;;;5066296;28;20217;-80
2021/10/14 04:14:12;;;;;;;5.50;5.00;;;4.80;99.90;;;;;;5059094;28;20257;-80
2021/10/14 04:16:39;;;;;;;6.30;4.90;;;4.80;99.90;;;;;;5068760;28;20557;-79
2021/10/14 04:19:07;;;;;;;6.38;5.80;;;4.60;99.90;;;;;;5064523;28;20227;-80
2021/10/14 04:21:35;;;;;;;5.70;5.20;;;4.70;99.90;;;;;;5072367;28;20197;-80
2021/10/14 04:24:01;;;;;;;5.93;5.22;;;4.70;99.90;;;;;;5063033;28;20217;-80
2021/10/14 04:26:28;;;;;;;5.60;5.05;;;4.70;99.90;;;;;;5072620;28;20587;-79
2021/10/14 04:28:56;;;;;;;6.82;6.22;;;4.60;99.90;;;;;;5055513;28;20209;-80
2021/10/14 04:31:23;;;;;;;5.85;5.20;;;4.70;99.90;;;;;;5055994;28;20204;-81
2021/10/14 04:33:50;;;;;;;6.40;5.80;;;4.70;99.90;;;;;;5055407;28;20706;-80
2021/10/14 04:36:16;;;;;;;6.03;5.43;;;4.70;99.90;;;;;;5076684;28;20666;-81
2021/10/14 04:38:43;;;;;;;5.95;5.35;;;4.80;99.90;;;;;;5067380;28;20232;-80
2021/10/14 04:41:10;;;;;;;6.15;5.55;;;4.80;99.90;;;;;;5059382;28;20557;-80
2021/10/14 04:43:37;;;;;;;5.15;4.65;;;4.90;99.90;;;;;;5075556;28;20221;-81
2021/10/14 04:46:07;;;;;;;6.82;6.13;;;4.90;99.90;;;;;;5069723;28;20225;-80
2021/10/14 04:48:33;;;;;;;6.35;5.38;;;4.90;99.90;;;;;;5061234;28;20213;-80
2021/10/14 04:51:00;;;;;;;6.68;5.70;;;5.00;99.90;;;;;;5070230;28;20204;-80
2021/10/14 04:53:27;;;;;;;6.63;6.03;;;4.90;99.90;;;;;;5062596;28;20247;-80
2021/10/14 04:55:53;;;;;;;7.28;5.75;;;4.80;99.90;;;;;;5078313;28;20208;-80
2021/10/14 04:58:20;;;;;;;6.65;5.05;;;4.90;99.90;;;;;;5070862;28;20683;-80
2021/10/14 05:00:47;;;;;;;8.32;5.43;;;4.90;99.90;;;;;;5058948;28;20206;-80
2021/10/14 05:03:19;;;;;;;6.78;4.88;;;4.90;99.90;;;;;;5061236;23;20234;-78
2021/10/14 05:05:46;;;;;;;6.65;5.20;;;4.90;99.90;;;;;;5017281;28;20211;-78
2021/10/14 05:08:13;;;;;;;5.53;5.00;;;5.00;99.90;;;;;;4999310;28;20195;-78
2021/10/14 05:10:40;;;;;;;6.15;5.55;;;4.90;99.90;;;;;;5006113;28;20207;-78
2021/10/14 05:13:07;;;;;;;7.57;6.20;;;4.80;99.90;;;;;;5019215;28;20222;-78
2021/10/14 05:15:34;;;;;;;7.10;5.30;;;4.90;99.90;;;;;;5012766;28;20227;-78
2021/10/14 05:18:01;;;;;;;5.75;5.25;;;4.90;99.90;;;;;;4999020;28;20700;-78
2021/10/14 05:20:29;;;;;;;5.78;4.80;;;5.00;99.90;;;;;;5004982;28;20206;-78
2021/10/14 05:22:55;;;;;;;10.27;6.40;;;5.10;99.90;;;;;;5013638;28;20254;-78
2021/10/14 05:25:22;;;;;;;5.57;4.70;;;5.20;99.90;;;;;;5000152;28;20242;-78
2021/10/14 05:27:49;;;;;;;7.90;5.80;;;5.20;99.90;;;;;;5001406;28;20226;-78
2021/10/14 05:30:16;;;;;;;7.70;5.20;;;5.30;99.90;;;;;;5015961;28;20200;-78
2021/10/14 05:32:43;;;;;;;9.95;5.32;;;5.30;99.90;;;;;;5000130;28;20223;-78
2021/10/14 05:35:10;;;;;;;5.60;5.03;;;5.40;99.90;;;;;;5008370;28;20211;-78
2021/10/14 05:37:38;;;;;;;11.23;4.90;;;5.40;99.90;;;;;;4999948;28;20583;-78
2021/10/14 05:40:07;;;;;;;5.55;4.68;;;5.30;99.90;;;;;;5018009;28;20223;-78
2021/10/14 05:42:34;;;;;;;5.35;4.43;;;5.30;99.90;;;;;;5019096;28;20229;-78
2021/10/14 05:45:01;;;;;;;8.18;5.00;;;5.20;99.90;;;;;;5017852;28;20726;-78
2021/10/14 05:47:28;;;;;;;5.75;4.90;;;5.10;99.90;;;;;;5019031;28;20217;-78
2021/10/14 05:49:54;;;;;;;4.15;3.75;;;5.10;99.90;;;;;;5003409;28;20204;-78
2021/10/14 05:52:21;;;;;;;5.47;4.78;;;5.00;99.90;;;;;;4999776;28;20235;-79
2021/10/14 05:54:49;;;;;;;6.72;4.80;;;5.20;99.90;;;;;;5007403;28;20211;-78
2021/10/14 05:57:16;;;;;;;7.40;6.80;;;5.30;99.90;;;;;;4998963;28;20215;-78
2021/10/14 05:59:43;;;;;;;5.05;4.50;;;5.30;99.90;;;;;;5017641;28;20222;-78
2021/10/14 06:02:09;;;;;;;6.43;5.72;;;5.10;99.90;;;;;;5000267;28;20204;-78
2021/10/14 06:04:36;;;;;;;6.05;4.70;;;5.30;99.90;;;;;;5000476;28;20219;-78
2021/10/14 06:07:03;;;;;;;5.97;4.50;;;5.30;99.90;;;;;;5015940;28;20232;-78
2021/10/14 06:09:30;;;;;;;3.95;3.47;;;5.20;99.90;;;;;;5017651;28;20211;-79
2021/10/14 06:11:58;;;;;;;5.60;4.63;;;5.30;99.90;;;;;;5015579;28;20226;-79
2021/10/14 06:14:25;;;;;;;5.15;4.57;;;5.40;99.90;;;;;;5016453;28;20242;-79
2021/10/14 06:16:52;;;;;;;5.18;4.65;;;5.30;99.90;;;;;;5000368;28;20199;-79
2021/10/14 06:19:18;;;;;;;5.40;4.13;;;5.40;99.90;;;;;;4997481;28;20223;-79
2021/10/14 06:21:45;;;;;;;3.83;3.58;;;5.30;99.90;;;;;;5012609;28;20206;-79
2021/10/14 06:24:12;;;;;;;6.35;3.88;;;5.30;99.90;;;;;;5007993;28;20228;-79
2021/10/14 06:26:39;;;;;;;4.95;4.05;;;5.40;99.90;;;;;;5017466;28;20207;-79
2021/10/14 06:29:07;;;;;;;5.68;4.60;;;5.60;99.90;;;;;;5006347;28;20628;-79
2021/10/14 06:31:34;;;;;;;4.80;4.40;;;5.80;99.90;;;;;;4998093;28;20214;-79
2021/10/14 06:34:00;;;;;;;4.35;3.95;;;5.90;99.90;;;;;;4997518;28;20234;-79
2021/10/14 06:36:30;;;;;;;5.47;4.97;;;6.10;99.90;;;;;;5005242;28;21860;-79
2021/10/14 06:38:57;;;;;;;7.57;6.72;;;6.20;99.90;;;;;;5014697;28;20220;-79
2021/10/14 06:41:24;;;;;;;5.40;4.90;;;6.20;99.90;;;;;;5009144;28;20210;-79
2021/10/14 06:43:51;;;;;;;5.55;5.10;;;6.30;99.90;;;;;;5001558;28;20258;-79
2021/10/14 06:46:19;;;;;;;4.93;4.38;;;6.50;99.90;;;;;;4994602;28;20208;-79
2021/10/14 06:48:46;;;;;;;5.30;4.13;;;6.40;99.90;;;;;;5011161;28;20278;-79
2021/10/14 06:51:12;;;;;;;6.82;4.40;;;6.40;99.90;;;;;;5013058;28;20580;-78
2021/10/14 06:53:39;;;;;;;5.55;4.43;;;6.30;99.90;;;;;;5000833;28;20219;-78
2021/10/14 06:56:06;;;;;;;4.25;3.90;;;6.40;99.90;;;;;;4993517;28;20207;-78
2021/10/14 06:58:33;;;;;;;3.90;3.53;;;6.50;99.90;;;;;;4992804;28;20220;-78
2021/10/14 07:00:59;;;;;;;4.65;4.15;;;6.70;99.90;;;;;;4994710;28;20222;-79
2021/10/14 07:03:28;;;;;;;4.97;4.00;;;6.80;99.90;;;;;;4992552;28;20605;-79
2021/10/14 07:05:54;;;;;;;5.50;4.40;;;6.80;99.90;;;;;;4993380;28;20204;-79
2021/10/14 07:08:21;;;;;;;6.05;4.10;;;6.80;99.90;;;;;;4992981;28;20208;-79
2021/10/14 07:10:48;;;;;;;5.40;4.38;;;6.80;99.90;;;;;;4993739;28;20204;-79
2021/10/14 07:13:15;;;;;;;9.18;4.65;;;6.80;99.90;;;;;;4992886;28;20286;-79
2021/10/14 07:15:42;;;;;;;4.35;4.05;;;6.80;99.90;;;;;;4994617;28;20570;-80
2021/10/14 07:18:09;;;;;;;7.85;4.18;;;6.70;99.90;;;;;;4996561;28;20230;-78
2021/10/14 07:20:37;;;;;;;4.43;4.07;;;6.80;99.90;;;;;;4996901;28;20234;-79
2021/10/14 07:23:11;;;;;;;4.70;4.30;;;6.90;99.90;;;;;;5015922;28;20231;-79
2021/10/14 07:25:38;;;;;;;5.30;4.40;;;7.00;99.90;;;;;;5012761;28;20246;-79
2021/10/14 07:28:06;;;;;;;4.50;4.10;;;7.20;99.90;;;;;;4995625;28;20200;-79
2021/10/14 07:30:34;;;;;;;4.00;3.70;;;7.20;99.90;;;;;;4998305;28;20625;-78
2021/10/14 07:33:03;;;;;;;5.18;4.78;;;7.40;99.90;;;;;;4995471;28;20598;-79
2021/10/14 07:35:31;;;;;;;6.88;4.28;;;7.60;99.90;;;;;;4995403;28;20207;-79
2021/10/14 07:38:00;;;;;;;4.07;3.58;;;7.60;99.90;;;;;;4996042;28;20218;-79
2021/10/14 07:40:27;;;;;;;4.65;3.30;;;7.80;99.90;;;;;;4995980;28;20697;-79
2021/10/14 07:42:54;;;;;;;6.70;3.50;;;7.80;99.90;;;;;;4995079;28;20328;-79
2021/10/14 07:45:21;;;;;;;4.40;4.00;;;7.90;99.90;;;;;;4995304;28;20219;-79
2021/10/14 07:47:48;;;;;;;4.43;3.58;;;7.90;99.90;;;;;;4995407;28;20228;-79
2021/10/14 07:50:15;;;;;;;4.25;3.95;;;7.90;99.90;;;;;;4995409;28;20204;-79
2021/10/14 07:52:42;;;;;;;5.80;4.00;;;7.90;99.90;;;;;;4995511;28;20232;-79
2021/10/14 07:55:11;;;;;;;4.45;3.67;;;7.90;99.90;;;;;;4995184;28;20270;-79
2021/10/14 07:57:38;;;;;;;5.13;4.63;;;7.90;99.90;;;;;;4995807;28;20214;-79
2021/10/14 08:00:06;;;;;;;3.85;3.55;;;8.00;99.90;;;;;;4995831;28;20315;-79
2021/10/14 08:02:33;;;;;;;4.70;3.67;;;8.20;99.90;;;;;;4995769;28;20728;-79
2021/10/14 08:05:00;;;;;;;5.45;3.95;;;8.10;99.90;;;;;;4995402;28;20216;-79
2021/10/14 08:07:26;;;;;;;5.70;3.63;;;8.30;99.90;;;;;;4995663;28;20218;-79
2021/10/14 08:09:54;;;;;;;3.90;3.60;;;8.40;99.90;;;;;;4996669;28;20209;-79
2021/10/14 08:12:22;;;;;;;4.32;2.92;;;8.60;99.90;;;;;;4999527;28;20211;-79
2021/10/14 08:14:48;;;;;;;4.07;3.65;;;8.50;99.90;;;;;;4999606;28;20677;-79
2021/10/14 08:17:15;;;;;;;3.97;3.65;;;8.70;99.90;;;;;;4999527;28;20222;-79
2021/10/14 08:19:42;;;;;;;4.80;3.05;;;8.70;99.90;;;;;;4999746;28;20728;-79
2021/10/14 08:22:09;;;;;;;5.78;4.35;;;8.70;99.90;;;;;;4999126;28;20219;-79
2021/10/14 08:24:38;;;;;;;5.07;3.75;;;8.90;99.90;;;;;;4999403;28;20218;-79
2021/10/14 08:27:05;;;;;;;4.22;3.13;;;8.90;99.90;;;;;;4999204;28;20213;-79
2021/10/14 08:29:33;;;;;;;4.63;3.35;;;8.90;99.90;;;;;;4999233;28;20230;-79
2021/10/14 08:32:02;;;;;;;4.72;4.28;;;9.10;99.90;;;;;;4999061;28;20212;-79
2021/10/14 08:34:28;;;;;;;4.35;3.90;;;9.00;99.90;;;;;;4998848;28;20270;-79
2021/10/14 08:36:56;;;;;;;4.03;3.53;;;9.00;99.90;;;;;;4996741;28;20212;-79
2021/10/14 08:39:23;;;;;;;3.75;3.40;;;9.00;99.90;;;;;;4996924;28;20224;-79
2021/10/14 08:41:50;;;;;;;4.53;3.67;;;9.10;99.90;;;;;;4996572;28;20693;-79
2021/10/14 08:44:24;;;;;;;3.13;2.83;;;9.20;99.90;;;;;;4996702;28;20227;-79
2021/10/14 08:46:53;;;;;;;3.80;3.35;;;9.30;99.90;;;;;;4996645;28;20212;-79
2021/10/14 08:49:20;;;;;;;5.22;3.15;;;9.30;99.90;;;;;;4996693;28;20207;-79
2021/10/14 08:51:46;;;;;;;4.93;3.15;;;9.20;99.90;;;;;;4997110;28;20218;-80
2021/10/14 08:54:13;;;;;;;4.18;3.78;;;9.40;99.90;;;;;;4997165;28;20239;-79
2021/10/14 08:56:43;;;;;;;4.18;3.20;;;9.40;99.90;;;;;;4995900;28;20212;-79
2021/10/14 08:59:12;;;;;;;2.78;2.58;;;9.40;99.90;;;;;;4996009;28;20250;-79
2021/10/14 09:01:40;;;;;;;3.28;2.88;;;9.40;99.90;;;;;;4996127;28;20216;-79
2021/10/14 09:04:14;;;;;;;3.85;3.53;;;9.50;99.90;;;;;;4996080;28;20272;-79
2021/10/14 09:06:42;;;;;;;2.72;2.53;;;9.50;99.90;;;;;;4995831;28;20213;-79
2021/10/14 09:09:08;;;;;;;3.03;2.75;;;9.60;99.90;;;;;;4996071;28;20219;-80
2021/10/14 09:11:35;;;;;;;2.58;2.38;;;9.60;99.90;;;;;;4995927;28;20216;-79
2021/10/14 09:14:08;;;;;;;4.00;3.47;;;9.70;99.90;;;;;;4995793;28;20319;-79
2021/10/14 09:16:36;;;;;;;4.43;3.40;;;9.80;99.90;;;;;;4995583;28;20299;-79
2021/10/14 09:19:19;;;;;;;2.65;2.35;;;9.90;99.90;;;;;;4995941;28;20208;-79
2021/10/14 09:21:48;;;;;;;3.50;3.20;;;10.20;99.90;;;;;;4995206;28;20213;-79
2021/10/14 09:24:30;;;;;;;2.95;2.65;;;10.20;99.90;;;;;;4995980;28;20229;-79
2021/10/14 09:26:58;;;;;;;2.87;2.67;;;10.40;99.90;;;;;;4995220;28;20207;-79
2021/10/14 09:29:27;;;;;;;3.77;3.20;;;10.50;99.90;;;;;;4995651;28;20446;-79
2021/10/14 09:31:57;;;;;;;2.60;2.40;;;10.70;99.90;;;;;;4995718;28;20886;-79
2021/10/14 09:34:37;;;;;;;3.30;3.00;;;10.90;99.90;;;;;;4995732;28;20230;-79
2021/10/14 09:37:07;;;;;;;3.00;2.43;;;11.10;99.90;;;;;;4995357;28;20453;-79
2021/10/14 09:39:34;;;;;;;3.17;2.40;;;11.40;99.90;;;;;;4995307;28;20482;-80
2021/10/14 09:42:01;;;;;;;3.67;3.37;;;11.60;99.90;;;;;;4995529;28;20484;-79
2021/10/14 09:44:28;;;;;;;2.40;2.20;;;11.70;99.90;;;;;;4996200;28;20454;-79
2021/10/14 09:46:56;;;;;;;2.90;2.70;;;11.80;99.90;;;;;;4996152;28;20460;-79
2021/10/14 09:49:28;;;;;;;2.60;2.40;;;11.80;99.90;;;;;;4995526;28;20542;-79
2021/10/14 09:52:00;;;;;;;4.20;2.43;;;12.10;99.90;;;;;;4995554;28;20454;-79
2021/10/14 09:54:27;;;;;;;3.00;2.70;;;12.10;99.90;;;;;;4995354;28;20474;-79
2021/10/14 09:56:54;;;;;;;3.90;2.77;;;12.10;99.80;;;;;;4995361;28;20461;-79
2021/10/14 09:59:21;;;;;;;3.47;3.13;;;12.30;99.80;;;;;;4995706;28;20460;-79
2021/10/14 10:01:50;;;;;;;4.53;3.07;;;12.30;98.60;;;;;;4995767;28;20465;-79
2021/10/14 10:04:25;;;;;;;3.00;2.80;;;12.30;99.00;;;;;;4995261;28;20486;-79
2021/10/14 10:06:52;;;;;;;4.20;3.13;;;12.40;99.50;;;;;;4994969;28;20467;-79
2021/10/14 10:09:22;;;;;;;2.40;2.30;;;12.40;98.10;;;;;;4995944;28;20461;-79
2021/10/14 10:11:52;;;;;;;4.60;3.17;;;12.50;98.40;;;;;;4995534;28;20455;-79
2021/10/14 10:14:22;;;;;;;2.87;2.53;;;12.60;98.50;;;;;;4996892;28;20474;-80
2021/10/14 10:16:56;;;;;;;2.83;2.43;;;12.70;97.80;;;;;;4996918;28;20454;-80
2021/10/14 10:19:43;;;;;;;2.90;2.70;;;12.70;97.30;;;;;;4997337;28;20461;-80
2021/10/14 10:22:10;;;;;;;3.30;3.03;;;12.90;98.20;;;;;;4999228;28;20450;-79
2021/10/14 10:24:38;;;;;;;3.40;2.83;;;13.00;97.50;;;;;;5000381;28;20457;-79
2021/10/14 10:27:09;;;;;;;2.60;2.40;;;13.10;97.30;;;;;;5001269;28;20602;-79
2021/10/14 10:29:40;;;;;;;2.50;2.30;;;13.10;96.30;;;;;;5000718;28;20450;-79
2021/10/14 10:32:18;;;;;;;4.17;2.93;;;13.30;96.70;;;;;;5001320;28;20451;-79
2021/10/14 10:35:06;;;;;;;2.90;2.70;;;13.60;96.40;;;;;;4999891;28;20453;-80
2021/10/14 10:37:50;;;;;;;2.77;2.40;;;13.80;95.80;;;;;;4998134;28;20474;-80
2021/10/14 10:40:25;;;;;;;4.67;2.73;;;14.40;94.90;;;;;;4997508;28;20493;-80
2021/10/14 10:43:01;;;;;;;2.90;2.70;;;14.80;94.80;;;;;;4997722;28;20513;-80
2021/10/14 10:45:31;;;;;;;4.53;3.97;;;15.30;92.80;;;;;;4997702;28;20457;-80
2021/10/14 10:48:00;;;;;;;2.50;2.30;;;15.80;91.70;;;;;;4998115;28;20840;-80
2021/10/14 10:50:47;;;;;;;4.40;2.80;;;16.40;91.80;;;;;;4998762;28;20448;-80
2021/10/14 10:53:19;;;;;;;3.80;2.30;;;17.20;90.20;;;;;;4998191;28;20525;-80
2021/10/14 10:55:49;;;;;;;4.47;2.33;;;17.40;88.60;;;;;;4998770;28;20500;-80
2021/10/14 10:58:17;;;;;;;2.20;2.10;;;17.40;86.60;;;;;;4998319;28;20460;-80
2021/10/14 11:00:45;;;;;;;2.67;2.37;;;17.50;86.10;;;;;;4998121;28;20498;-80
2021/10/14 11:03:22;;;;;;;2.43;2.23;;;17.90;87.20;;;;;;5023658;22;20506;-82
2021/10/14 11:05:53;;;;;;;3.13;2.90;;;18.20;86.00;;;;;;5043077;28;20452;-81
2021/10/14 11:08:22;;;;;;;2.27;2.10;;;18.20;83.20;;;;;;5043535;28;20451;-82
2021/10/14 11:10:52;;;;;;;2.43;2.33;;;18.50;82.30;;;;;;5043033;28;20480;-82
2021/10/14 11:13:20;;;;;;;2.60;2.27;;;18.80;79.60;;;;;;5042842;28;20493;-82
2021/10/14 11:15:52;;;;;;;2.83;2.63;;;19.40;81.20;;;;;;5042637;28;20456;-82
2021/10/14 11:18:20;;;;;;;3.83;3.23;;;19.70;78.70;;;;;;5043173;28;20969;-81
2021/10/14 11:20:55;;;;;;;2.00;1.90;;;19.90;73.30;;;;;;5044302;28;20499;-82
2021/10/14 11:23:24;;;;;;;3.20;3.00;;;19.60;73.10;;;;;;5041450;28;20483;-82
2021/10/14 11:26:10;;;;;;;2.30;2.17;;;19.50;72.90;;;;;;5041943;28;20468;-82
2021/10/14 11:28:55;;;;;;;2.77;2.53;;;19.20;75.10;;;;;;5041825;28;20456;-82
2021/10/14 11:31:24;;;;;;;2.80;2.30;;;19.30;72.70;;;;;;5041463;28;20452;-82
2021/10/14 11:33:52;;;;;;;3.53;2.50;;;19.50;73.40;;;;;;5041184;28;20504;-82
2021/10/14 11:36:21;;;;;;;4.13;2.80;;;19.20;73.30;;;;;;5038075;28;20934;-83
2021/10/14 11:39:00;;;;;;;2.27;2.10;;;19.20;76.00;;;;;;5038567;28;20449;-80
2021/10/14 11:41:29;;;;;;;2.07;1.97;;;19.50;74.10;;;;;;5039675;28;21044;-85
2021/10/14 11:43:58;;;;;;;2.60;2.40;;;19.20;74.70;;;;;;5040833;28;20478;-79
2021/10/14 11:46:27;;;;;;;3.10;2.73;;;18.90;76.60;;;;;;5040200;28;20458;-82
2021/10/14 11:48:59;;;;;;;2.47;2.27;;;18.60;74.40;;;;;;5027405;28;20446;-83
2021/10/14 11:51:26;;;;;;;3.30;3.00;;;18.30;76.10;;;;;;5027401;28;20511;-83
2021/10/14 11:57:41;;;;;;;3.13;2.47;;;18.40;78.20;;;;;;5026642;28;20969;-81
2021/10/14 12:00:10;;;;;;;2.57;2.37;;;18.30;77.30;;;;;;5032054;28;20491;-81
2021/10/14 12:02:43;;;;;;;2.60;2.40;;;18.20;79.10;;;;;;5027335;28;20459;-87
2021/10/14 12:05:10;;;;;;;2.53;2.33;;;18.30;79.90;;;;;;5033045;28;20453;-82
2021/10/14 12:07:37;;;;;;;3.10;2.80;;;18.50;79.50;;;;;;5029255;28;20457;-80
2021/10/14 12:10:04;;;;;;;3.63;3.43;;;18.80;79.90;;;;;;5031989;28;20448;-81
2021/10/14 12:12:32;;;;;;;3.60;2.83;;;18.70;76.90;;;;;;5035231;28;20448;-81
2021/10/14 12:15:06;;;;;;;3.20;2.90;;;18.60;78.80;;;;;;5033032;28;20969;-81
2021/10/14 12:17:38;;;;;;;3.97;3.60;;;18.50;78.50;;;;;;5038653;28;20446;-83
2021/10/14 12:20:11;;;;;;;3.77;3.47;;;18.60;79.10;;;;;;5040696;28;20456;-83
2021/10/14 12:26:57;;;;;;;5.80;5.30;;;20.00;77.00;;;;;;5014896;28;20437;-85
2021/10/14 12:29:26;;;;;;;3.10;2.90;;;20.60;74.60;;;;;;5016039;28;20519;-86
2021/10/14 12:32:10;;;;;;;3.60;3.40;;;21.40;72.40;;;;;;5015037;28;20453;-85
2021/10/14 12:34:48;;;;;;;3.37;3.17;;;21.40;69.40;;;;;;5015233;28;20471;-85
2021/10/14 12:37:17;;;;;;;3.03;2.73;;;21.70;70.00;;;;;;5014800;28;20462;-85
2021/10/14 12:39:44;;;;;;;4.50;3.60;;;22.40;68.90;;;;;;5015204;28;20825;-86
2021/10/14 12:42:13;;;;;;;2.53;2.43;;;22.20;67.70;;;;;;5015220;28;21033;-86
2021/10/14 12:44:57;;;;;;;4.13;3.43;;;22.50;68.00;;;;;;5014875;28;20469;-85
2021/10/14 12:47:37;;;;;;;3.23;2.93;;;22.50;67.20;;;;;;5015556;28;20464;-86
2021/10/14 12:50:17;;;;;;;3.23;2.93;;;22.60;65.80;;;;;;5015583;28;20466;-85
2021/10/14 12:52:44;;;;;;;2.77;2.40;;;22.70;67.50;;;;;;5020426;28;20462;-85
2021/10/14 12:55:13;;;;;;;4.33;3.20;;;23.20;68.70;;;;;;5023515;28;20457;-86
2021/10/14 12:57:39;;;;;;;4.43;3.80;;;23.70;67.80;;;;;;5024177;28;20458;-85
2021/10/14 13:00:08;;;;;;;3.90;3.20;;;24.20;63.70;;;;;;5027615;28;20450;-85
2021/10/14 13:02:36;;;;;;;3.10;2.80;;;24.90;61.60;;;;;;5030618;28;20506;-85
2021/10/14 13:05:04;;;;;;;2.80;2.60;;;24.70;61.00;;;;;;5029972;28;20545;-84
2021/10/14 13:07:30;;;;;;;4.60;2.63;;;24.30;60.10;;;;;;5024821;28;20456;-85